sensor_id;sensor_type;location;lat;lon;timestamp;P1;durP1;ratioP1;P2;durP2;ratioP2
72369;SDS011;60343;-32.030;115.880;2024-03-08T00:01:57;0.68;;;0.30;;
72369;SDS011;60343;-32.030;115.880;2024-03-08T00:04:33;1.13;;;0.32;;
72369;SDS011;60343;-32.030;115.880;2024-03-08T00:07:08;0.20;;;0.20;;
72369;SDS011;60343;-32.030;115.880;2024-03-08T00:09:43;0.13;;;0.13;;
72369;SDS011;60343;-32.030;115.880;2024-03-08T00:12:19;2.38;;;0.40;;
72369;SDS011;60343;-32.030;115.880;2024-03-08T00:14:54;0.43;;;0.13;;
72369;SDS011;60343;-32.030;115.880;2024-03-08T00:17:36;0.70;;;0.30;;
72369;SDS011;60343;-32.030;115.880;2024-03-08T00:20:11;1.33;;;0.32;;
72369;SDS011;60343;-32.030;115.880;2024-03-08T00:22:47;0.40;;;0.20;;
72369;SDS011;60343;-32.030;115.880;2024-03-08T00:25:24;1.15;;;0.40;;
72369;SDS011;60343;-32.030;115.880;2024-03-08T00:28:00;0.90;;;0.30;;
72369;SDS011;60343;-32.030;115.880;2024-03-08T00:30:35;0.60;;;0.30;;
72369;SDS011;60343;-32.030;115.880;2024-03-08T00:33:17;1.75;;;0.30;;
72369;SDS011;60343;-32.030;115.880;2024-03-08T00:35:53;1.55;;;0.30;;
72369;SDS011;60343;-32.030;115.880;2024-03-08T00:38:28;0.68;;;0.30;;
72369;SDS011;60343;-32.030;115.880;2024-03-08T00:41:04;1.27;;;0.20;;
72369;SDS011;60343;-32.030;115.880;2024-03-08T00:43:40;0.63;;;0.30;;
72369;SDS011;60343;-32.030;115.880;2024-03-08T00:46:16;0.40;;;0.20;;
72369;SDS011;60343;-32.030;115.880;2024-03-08T00:48:57;0.65;;;0.30;;
72369;SDS011;60343;-32.030;115.880;2024-03-08T00:51:33;1.08;;;0.25;;
72369;SDS011;60343;-32.030;115.880;2024-03-08T00:54:08;1.17;;;0.30;;
72369;SDS011;60343;-32.030;115.880;2024-03-08T00:56:43;0.47;;;0.22;;
72369;SDS011;60343;-32.030;115.880;2024-03-08T00:59:19;1.40;;;0.30;;
72369;SDS011;60343;-32.030;115.880;2024-03-08T01:01:54;0.40;;;0.22;;
72369;SDS011;60343;-32.030;115.880;2024-03-08T01:04:35;3.65;;;0.68;;
72369;SDS011;60343;-32.030;115.880;2024-03-08T01:07:11;34.60;;;3.70;;
72369;SDS011;60343;-32.030;115.880;2024-03-08T01:09:47;32.55;;;2.78;;
72369;SDS011;60343;-32.030;115.880;2024-03-08T01:12:23;16.17;;;1.48;;
72369;SDS011;60343;-32.030;115.880;2024-03-08T01:14:59;8.88;;;1.17;;
72369;SDS011;60343;-32.030;115.880;2024-03-08T01:17:37;6.32;;;0.60;;
72369;SDS011;60343;-32.030;115.880;2024-03-08T01:20:18;4.10;;;0.90;;
72369;SDS011;60343;-32.030;115.880;2024-03-08T01:22:54;4.25;;;0.70;;
72369;SDS011;60343;-32.030;115.880;2024-03-08T01:25:30;1.45;;;0.38;;
72369;SDS011;60343;-32.030;115.880;2024-03-08T01:28:05;1.85;;;0.45;;
72369;SDS011;60343;-32.030;115.880;2024-03-08T01:30:41;2.35;;;0.45;;
72369;SDS011;60343;-32.030;115.880;2024-03-08T01:33:16;2.13;;;0.50;;
72369;SDS011;60343;-32.030;115.880;2024-03-08T01:35:57;2.42;;;0.40;;
72369;SDS011;60343;-32.030;115.880;2024-03-08T01:38:34;3.40;;;0.47;;
72369;SDS011;60343;-32.030;115.880;2024-03-08T01:41:10;2.65;;;0.60;;
72369;SDS011;60343;-32.030;115.880;2024-03-08T01:43:46;1.45;;;0.40;;
72369;SDS011;60343;-32.030;115.880;2024-03-08T01:46:21;2.70;;;0.60;;
72369;SDS011;60343;-32.030;115.880;2024-03-08T01:48:57;4.45;;;0.55;;
72369;SDS011;60343;-32.030;115.880;2024-03-08T01:51:39;3.13;;;0.90;;
72369;SDS011;60343;-32.030;115.880;2024-03-08T01:54:15;2.15;;;0.40;;
72369;SDS011;60343;-32.030;115.880;2024-03-08T01:56:52;4.45;;;0.90;;
72369;SDS011;60343;-32.030;115.880;2024-03-08T01:59:27;1.13;;;0.50;;
72369;SDS011;60343;-32.030;115.880;2024-03-08T02:02:03;2.13;;;0.50;;
72369;SDS011;60343;-32.030;115.880;2024-03-08T02:04:40;2.28;;;0.73;;
72369;SDS011;60343;-32.030;115.880;2024-03-08T02:07:21;2.55;;;0.70;;
72369;SDS011;60343;-32.030;115.880;2024-03-08T02:09:58;4.95;;;0.60;;
72369;SDS011;60343;-32.030;115.880;2024-03-08T02:12:33;2.80;;;0.60;;
72369;SDS011;60343;-32.030;115.880;2024-03-08T02:15:09;1.63;;;0.60;;
72369;SDS011;60343;-32.030;115.880;2024-03-08T02:17:44;2.83;;;0.52;;
72369;SDS011;60343;-32.030;115.880;2024-03-08T02:20:19;2.13;;;0.50;;
72369;SDS011;60343;-32.030;115.880;2024-03-08T02:23:01;2.17;;;0.50;;
72369;SDS011;60343;-32.030;115.880;2024-03-08T02:25:36;1.27;;;0.30;;
72369;SDS011;60343;-32.030;115.880;2024-03-08T02:28:12;2.47;;;0.70;;
72369;SDS011;60343;-32.030;115.880;2024-03-08T02:30:48;2.28;;;0.73;;
72369;SDS011;60343;-32.030;115.880;2024-03-08T02:33:24;2.25;;;0.60;;
72369;SDS011;60343;-32.030;115.880;2024-03-08T02:36:00;2.25;;;0.60;;
72369;SDS011;60343;-32.030;115.880;2024-03-08T02:38:44;1.40;;;0.70;;
72369;SDS011;60343;-32.030;115.880;2024-03-08T02:41:21;1.02;;;0.50;;
72369;SDS011;60343;-32.030;115.880;2024-03-08T02:43:57;2.10;;;0.63;;
72369;SDS011;60343;-32.030;115.880;2024-03-08T02:46:33;4.40;;;0.50;;
72369;SDS011;60343;-32.030;115.880;2024-03-08T02:49:08;0.52;;;0.22;;
72369;SDS011;60343;-32.030;115.880;2024-03-08T02:51:44;1.00;;;0.40;;
72369;SDS011;60343;-32.030;115.880;2024-03-08T02:54:25;2.83;;;0.63;;
72369;SDS011;60343;-32.030;115.880;2024-03-08T02:57:01;1.85;;;0.50;;
72369;SDS011;60343;-32.030;115.880;2024-03-08T02:59:37;4.05;;;0.55;;
72369;SDS011;60343;-32.030;115.880;2024-03-08T03:02:12;1.00;;;0.45;;
72369;SDS011;60343;-32.030;115.880;2024-03-08T03:04:47;1.20;;;0.40;;
72369;SDS011;60343;-32.030;115.880;2024-03-08T03:07:23;3.35;;;0.57;;
72369;SDS011;60343;-32.030;115.880;2024-03-08T03:10:06;0.45;;;0.32;;
72369;SDS011;60343;-32.030;115.880;2024-03-08T03:12:43;4.03;;;0.70;;
72369;SDS011;60343;-32.030;115.880;2024-03-08T03:15:19;0.75;;;0.28;;
72369;SDS011;60343;-32.030;115.880;2024-03-08T03:17:54;0.50;;;0.30;;
72369;SDS011;60343;-32.030;115.880;2024-03-08T03:20:29;3.78;;;0.50;;
72369;SDS011;60343;-32.030;115.880;2024-03-08T03:23:06;1.83;;;0.40;;
72369;SDS011;60343;-32.030;115.880;2024-03-08T03:25:52;2.40;;;0.50;;
72369;SDS011;60343;-32.030;115.880;2024-03-08T03:28:29;3.22;;;0.63;;
72369;SDS011;60343;-32.030;115.880;2024-03-08T03:31:06;1.77;;;0.50;;
72369;SDS011;60343;-32.030;115.880;2024-03-08T03:34:04;5.95;;;0.55;;
72369;SDS011;60343;-32.030;115.880;2024-03-08T03:36:39;2.63;;;0.68;;
72369;SDS011;60343;-32.030;115.880;2024-03-08T03:39:15;3.60;;;0.63;;
72369;SDS011;60343;-32.030;115.880;2024-03-08T03:41:56;1.40;;;0.70;;
72369;SDS011;60343;-32.030;115.880;2024-03-08T03:44:31;3.92;;;0.77;;
72369;SDS011;60343;-32.030;115.880;2024-03-08T03:47:07;2.85;;;0.77;;
72369;SDS011;60343;-32.030;115.880;2024-03-08T03:49:42;2.25;;;0.70;;
72369;SDS011;60343;-32.030;115.880;2024-03-08T03:52:19;2.50;;;0.85;;
72369;SDS011;60343;-32.030;115.880;2024-03-08T03:54:55;3.70;;;0.88;;
72369;SDS011;60343;-32.030;115.880;2024-03-08T03:57:36;7.10;;;1.02;;
72369;SDS011;60343;-32.030;115.880;2024-03-08T04:00:12;6.38;;;1.00;;
72369;SDS011;60343;-32.030;115.880;2024-03-08T04:02:47;6.57;;;0.85;;
72369;SDS011;60343;-32.030;115.880;2024-03-08T04:05:26;4.57;;;1.02;;
72369;SDS011;60343;-32.030;115.880;2024-03-08T04:08:02;6.28;;;1.23;;
72369;SDS011;60343;-32.030;115.880;2024-03-08T04:10:37;7.30;;;1.08;;
72369;SDS011;60343;-32.030;115.880;2024-03-08T04:13:20;9.52;;;1.27;;
72369;SDS011;60343;-32.030;115.880;2024-03-08T04:15:55;9.48;;;1.10;;
72369;SDS011;60343;-32.030;115.880;2024-03-08T04:18:34;5.72;;;1.10;;
72369;SDS011;60343;-32.030;115.880;2024-03-08T04:21:09;4.70;;;1.10;;
72369;SDS011;60343;-32.030;115.880;2024-03-08T04:23:45;8.77;;;1.48;;
72369;SDS011;60343;-32.030;115.880;2024-03-08T04:26:20;10.07;;;1.73;;
72369;SDS011;60343;-32.030;115.880;2024-03-08T04:29:01;8.38;;;1.70;;
72369;SDS011;60343;-32.030;115.880;2024-03-08T04:31:37;6.10;;;1.50;;
72369;SDS011;60343;-32.030;115.880;2024-03-08T04:34:13;10.10;;;1.15;;
72369;SDS011;60343;-32.030;115.880;2024-03-08T04:36:48;6.60;;;1.50;;
72369;SDS011;60343;-32.030;115.880;2024-03-08T04:39:23;9.43;;;1.90;;
72369;SDS011;60343;-32.030;115.880;2024-03-08T04:42:00;6.45;;;1.08;;
72369;SDS011;60343;-32.030;115.880;2024-03-08T04:44:43;6.75;;;1.30;;
72369;SDS011;60343;-32.030;115.880;2024-03-08T04:47:19;6.55;;;1.40;;
72369;SDS011;60343;-32.030;115.880;2024-03-08T04:49:55;6.72;;;1.27;;
72369;SDS011;60343;-32.030;115.880;2024-03-08T04:52:30;8.20;;;1.48;;
72369;SDS011;60343;-32.030;115.880;2024-03-08T04:55:06;6.20;;;1.35;;
72369;SDS011;60343;-32.030;115.880;2024-03-08T04:57:42;6.25;;;1.27;;
72369;SDS011;60343;-32.030;115.880;2024-03-08T05:00:23;5.47;;;1.17;;
72369;SDS011;60343;-32.030;115.880;2024-03-08T05:02:58;8.35;;;1.50;;
72369;SDS011;60343;-32.030;115.880;2024-03-08T05:05:34;7.68;;;1.30;;
72369;SDS011;60343;-32.030;115.880;2024-03-08T05:08:12;7.68;;;1.20;;
72369;SDS011;60343;-32.030;115.880;2024-03-08T05:10:47;13.60;;;1.50;;
72369;SDS011;60343;-32.030;115.880;2024-03-08T05:13:23;4.88;;;1.13;;
72369;SDS011;60343;-32.030;115.880;2024-03-08T05:16:04;7.28;;;1.33;;
72369;SDS011;60343;-32.030;115.880;2024-03-08T05:18:41;5.78;;;1.25;;
72369;SDS011;60343;-32.030;115.880;2024-03-08T05:21:17;8.95;;;1.50;;
72369;SDS011;60343;-32.030;115.880;2024-03-08T05:23:53;9.48;;;1.52;;
72369;SDS011;60343;-32.030;115.880;2024-03-08T05:26:28;9.90;;;1.80;;
72369;SDS011;60343;-32.030;115.880;2024-03-08T05:29:03;11.27;;;1.80;;
72369;SDS011;60343;-32.030;115.880;2024-03-08T05:31:45;12.48;;;1.38;;
72369;SDS011;60343;-32.030;115.880;2024-03-08T05:34:22;13.40;;;2.10;;
72369;SDS011;60343;-32.030;115.880;2024-03-08T05:36:58;9.32;;;1.88;;
72369;SDS011;60343;-32.030;115.880;2024-03-08T05:39:34;11.43;;;2.05;;
72369;SDS011;60343;-32.030;115.880;2024-03-08T05:42:10;14.60;;;1.92;;
72369;SDS011;60343;-32.030;115.880;2024-03-08T05:44:46;13.60;;;2.53;;
72369;SDS011;60343;-32.030;115.880;2024-03-08T05:47:29;11.45;;;2.15;;
72369;SDS011;60343;-32.030;115.880;2024-03-08T05:50:05;13.30;;;3.00;;
72369;SDS011;60343;-32.030;115.880;2024-03-08T05:52:44;13.73;;;2.13;;
72369;SDS011;60343;-32.030;115.880;2024-03-08T05:55:20;11.63;;;2.08;;
72369;SDS011;60343;-32.030;115.880;2024-03-08T05:57:56;14.23;;;2.25;;
72369;SDS011;60343;-32.030;115.880;2024-03-08T06:00:31;8.90;;;1.80;;
72369;SDS011;60343;-32.030;115.880;2024-03-08T06:03:21;16.50;;;1.65;;
72369;SDS011;60343;-32.030;115.880;2024-03-08T06:05:57;11.23;;;1.73;;
72369;SDS011;60343;-32.030;115.880;2024-03-08T06:08:32;8.60;;;1.15;;
72369;SDS011;60343;-32.030;115.880;2024-03-08T06:11:09;10.48;;;1.38;;
72369;SDS011;60343;-32.030;115.880;2024-03-08T06:13:47;9.25;;;1.33;;
72369;SDS011;60343;-32.030;115.880;2024-03-08T06:16:26;11.00;;;1.40;;
72369;SDS011;60343;-32.030;115.880;2024-03-08T06:19:08;10.30;;;1.23;;
72369;SDS011;60343;-32.030;115.880;2024-03-08T06:21:43;10.23;;;1.70;;
72369;SDS011;60343;-32.030;115.880;2024-03-08T06:24:18;11.85;;;1.58;;
72369;SDS011;60343;-32.030;115.880;2024-03-08T06:26:54;6.35;;;1.10;;
72369;SDS011;60343;-32.030;115.880;2024-03-08T06:29:30;12.07;;;1.60;;
72369;SDS011;60343;-32.030;115.880;2024-03-08T06:32:05;8.38;;;1.13;;
72369;SDS011;60343;-32.030;115.880;2024-03-08T06:34:47;8.20;;;1.17;;
72369;SDS011;60343;-32.030;115.880;2024-03-08T06:37:23;10.27;;;1.27;;
72369;SDS011;60343;-32.030;115.880;2024-03-08T06:39:58;15.05;;;1.52;;
72369;SDS011;60343;-32.030;115.880;2024-03-08T06:42:36;11.70;;;1.40;;
72369;SDS011;60343;-32.030;115.880;2024-03-08T06:45:11;9.50;;;1.50;;
72369;SDS011;60343;-32.030;115.880;2024-03-08T06:47:47;8.93;;;1.75;;
72369;SDS011;60343;-32.030;115.880;2024-03-08T06:50:29;15.35;;;1.70;;
72369;SDS011;60343;-32.030;115.880;2024-03-08T06:53:04;11.00;;;1.55;;
72369;SDS011;60343;-32.030;115.880;2024-03-08T06:55:39;8.85;;;1.50;;
72369;SDS011;60343;-32.030;115.880;2024-03-08T06:58:18;5.95;;;1.27;;
72369;SDS011;60343;-32.030;115.880;2024-03-08T07:01:13;10.45;;;0.98;;
72369;SDS011;60343;-32.030;115.880;2024-03-08T07:03:54;6.07;;;1.50;;
72369;SDS011;60343;-32.030;115.880;2024-03-08T07:06:37;11.15;;;1.23;;
72369;SDS011;60343;-32.030;115.880;2024-03-08T07:09:14;13.27;;;1.48;;
72369;SDS011;60343;-32.030;115.880;2024-03-08T07:11:49;5.32;;;1.00;;
72369;SDS011;60343;-32.030;115.880;2024-03-08T07:14:25;8.48;;;1.92;;
72369;SDS011;60343;-32.030;115.880;2024-03-08T07:17:01;12.75;;;1.40;;
72369;SDS011;60343;-32.030;115.880;2024-03-08T07:19:36;3.88;;;0.77;;
72369;SDS011;60343;-32.030;115.880;2024-03-08T07:22:17;3.80;;;0.88;;
72369;SDS011;60343;-32.030;115.880;2024-03-08T07:24:53;8.48;;;1.45;;
72369;SDS011;60343;-32.030;115.880;2024-03-08T07:27:45;13.07;;;2.35;;
72369;SDS011;60343;-32.030;115.880;2024-03-08T07:30:21;8.45;;;2.30;;
72369;SDS011;60343;-32.030;115.880;2024-03-08T07:33:05;8.43;;;1.73;;
72369;SDS011;60343;-32.030;115.880;2024-03-08T07:35:40;9.13;;;1.10;;
72369;SDS011;60343;-32.030;115.880;2024-03-08T07:38:22;11.52;;;1.77;;
72369;SDS011;60343;-32.030;115.880;2024-03-08T07:40:57;16.08;;;2.00;;
72369;SDS011;60343;-32.030;115.880;2024-03-08T07:43:33;8.50;;;1.10;;
72369;SDS011;60343;-32.030;115.880;2024-03-08T07:46:10;7.43;;;1.20;;
72369;SDS011;60343;-32.030;115.880;2024-03-08T07:48:45;15.43;;;1.00;;
72369;SDS011;60343;-32.030;115.880;2024-03-08T07:51:21;7.20;;;1.17;;
72369;SDS011;60343;-32.030;115.880;2024-03-08T07:54:02;6.05;;;1.30;;
72369;SDS011;60343;-32.030;115.880;2024-03-08T07:56:38;7.70;;;1.02;;
72369;SDS011;60343;-32.030;115.880;2024-03-08T07:59:13;5.80;;;0.85;;
72369;SDS011;60343;-32.030;115.880;2024-03-08T08:01:48;7.22;;;0.90;;
72369;SDS011;60343;-32.030;115.880;2024-03-08T08:04:24;5.95;;;1.05;;
72369;SDS011;60343;-32.030;115.880;2024-03-08T08:06:59;5.32;;;1.30;;
72369;SDS011;60343;-32.030;115.880;2024-03-08T08:09:40;13.30;;;1.60;;
72369;SDS011;60343;-32.030;115.880;2024-03-08T08:12:16;5.85;;;1.40;;
72369;SDS011;60343;-32.030;115.880;2024-03-08T08:14:51;6.72;;;0.95;;
72369;SDS011;60343;-32.030;115.880;2024-03-08T08:17:26;10.20;;;1.25;;
72369;SDS011;60343;-32.030;115.880;2024-03-08T08:20:02;8.48;;;1.17;;
72369;SDS011;60343;-32.030;115.880;2024-03-08T08:22:38;10.45;;;1.48;;
72369;SDS011;60343;-32.030;115.880;2024-03-08T08:25:20;7.32;;;0.98;;
72369;SDS011;60343;-32.030;115.880;2024-03-08T08:27:55;7.97;;;1.10;;
72369;SDS011;60343;-32.030;115.880;2024-03-08T08:30:37;10.30;;;1.98;;
72369;SDS011;60343;-32.030;115.880;2024-03-08T08:33:15;10.35;;;1.30;;
72369;SDS011;60343;-32.030;115.880;2024-03-08T08:35:51;12.05;;;4.32;;
72369;SDS011;60343;-32.030;115.880;2024-03-08T08:38:27;8.05;;;1.10;;
72369;SDS011;60343;-32.030;115.880;2024-03-08T08:41:11;6.75;;;1.40;;
72369;SDS011;60343;-32.030;115.880;2024-03-08T08:43:47;15.93;;;2.15;;
72369;SDS011;60343;-32.030;115.880;2024-03-08T08:46:23;11.48;;;2.47;;
72369;SDS011;60343;-32.030;115.880;2024-03-08T08:48:59;11.27;;;1.58;;
72369;SDS011;60343;-32.030;115.880;2024-03-08T08:51:36;10.45;;;0.98;;
72369;SDS011;60343;-32.030;115.880;2024-03-08T08:54:12;7.88;;;0.80;;
72369;SDS011;60343;-32.030;115.880;2024-03-08T08:56:54;5.18;;;0.90;;
72369;SDS011;60343;-32.030;115.880;2024-03-08T08:59:33;7.85;;;1.00;;
72369;SDS011;60343;-32.030;115.880;2024-03-08T09:02:09;6.97;;;0.70;;
72369;SDS011;60343;-32.030;115.880;2024-03-08T09:04:47;13.90;;;1.00;;
72369;SDS011;60343;-32.030;115.880;2024-03-08T09:07:22;5.70;;;1.10;;
72369;SDS011;60343;-32.030;115.880;2024-03-08T09:09:58;12.07;;;1.00;;
72369;SDS011;60343;-32.030;115.880;2024-03-08T09:12:41;5.18;;;0.73;;
72369;SDS011;60343;-32.030;115.880;2024-03-08T09:15:17;10.30;;;1.45;;
72369;SDS011;60343;-32.030;115.880;2024-03-08T09:17:54;11.77;;;1.63;;
72369;SDS011;60343;-32.030;115.880;2024-03-08T09:20:32;13.13;;;1.15;;
72369;SDS011;60343;-32.030;115.880;2024-03-08T09:23:07;9.45;;;1.00;;
72369;SDS011;60343;-32.030;115.880;2024-03-08T09:25:43;6.40;;;1.08;;
72369;SDS011;60343;-32.030;115.880;2024-03-08T09:28:24;4.47;;;0.70;;
72369;SDS011;60343;-32.030;115.880;2024-03-08T09:31:02;6.38;;;1.15;;
72369;SDS011;60343;-32.030;115.880;2024-03-08T09:33:38;5.97;;;0.90;;
72369;SDS011;60343;-32.030;115.880;2024-03-08T09:36:13;7.93;;;1.10;;
72369;SDS011;60343;-32.030;115.880;2024-03-08T09:38:49;5.47;;;0.60;;
72369;SDS011;60343;-32.030;115.880;2024-03-08T09:41:24;6.88;;;0.75;;
72369;SDS011;60343;-32.030;115.880;2024-03-08T09:44:06;5.28;;;0.80;;
72369;SDS011;60343;-32.030;115.880;2024-03-08T09:46:44;7.93;;;1.00;;
72369;SDS011;60343;-32.030;115.880;2024-03-08T09:49:20;5.07;;;0.70;;
72369;SDS011;60343;-32.030;115.880;2024-03-08T09:55:19;9.23;;;0.65;;
72369;SDS011;60343;-32.030;115.880;2024-03-08T09:58:00;6.85;;;0.60;;
72369;SDS011;60343;-32.030;115.880;2024-03-08T10:00:52;6.05;;;0.80;;
72369;SDS011;60343;-32.030;115.880;2024-03-08T10:03:28;7.95;;;0.88;;
72369;SDS011;60343;-32.030;115.880;2024-03-08T10:06:04;3.08;;;0.60;;
72369;SDS011;60343;-32.030;115.880;2024-03-08T10:08:42;8.27;;;1.08;;
72369;SDS011;60343;-32.030;115.880;2024-03-08T10:11:18;3.58;;;0.50;;
72369;SDS011;60343;-32.030;115.880;2024-03-08T10:13:54;5.60;;;0.60;;
72369;SDS011;60343;-32.030;115.880;2024-03-08T10:16:36;6.32;;;0.77;;
72369;SDS011;60343;-32.030;115.880;2024-03-08T10:19:13;7.40;;;0.68;;
72369;SDS011;60343;-32.030;115.880;2024-03-08T10:21:48;5.13;;;0.65;;
72369;SDS011;60343;-32.030;115.880;2024-03-08T10:24:25;4.68;;;0.75;;
72369;SDS011;60343;-32.030;115.880;2024-03-08T10:27:00;11.45;;;1.02;;
72369;SDS011;60343;-32.030;115.880;2024-03-08T10:29:36;4.80;;;0.70;;
72369;SDS011;60343;-32.030;115.880;2024-03-08T10:32:18;6.47;;;1.00;;
72369;SDS011;60343;-32.030;115.880;2024-03-08T10:34:54;3.75;;;0.70;;
72369;SDS011;60343;-32.030;115.880;2024-03-08T10:37:29;7.82;;;0.80;;
72369;SDS011;60343;-32.030;115.880;2024-03-08T10:40:05;5.47;;;0.82;;
72369;SDS011;60343;-32.030;115.880;2024-03-08T10:45:29;7.85;;;0.85;;
72369;SDS011;60343;-32.030;115.880;2024-03-08T10:48:26;6.63;;;0.80;;
72369;SDS011;60343;-32.030;115.880;2024-03-08T10:51:04;4.93;;;1.25;;
72369;SDS011;60343;-32.030;115.880;2024-03-08T10:53:40;9.02;;;0.85;;
72369;SDS011;60343;-32.030;115.880;2024-03-08T10:56:17;5.78;;;0.85;;
72369;SDS011;60343;-32.030;115.880;2024-03-08T10:58:54;6.40;;;0.75;;
72369;SDS011;60343;-32.030;115.880;2024-03-08T11:01:31;8.48;;;0.90;;
72369;SDS011;60343;-32.030;115.880;2024-03-08T11:04:12;7.38;;;1.00;;
72369;SDS011;60343;-32.030;115.880;2024-03-08T11:06:50;6.28;;;0.80;;
72369;SDS011;60343;-32.030;115.880;2024-03-08T11:09:29;7.25;;;0.90;;
72369;SDS011;60343;-32.030;115.880;2024-03-08T11:14:59;4.65;;;0.68;;
72369;SDS011;60343;-32.030;115.880;2024-03-08T11:17:45;5.18;;;0.65;;
72369;SDS011;60343;-32.030;115.880;2024-03-08T11:20:30;6.57;;;1.13;;
72369;SDS011;60343;-32.030;115.880;2024-03-08T11:23:05;6.60;;;0.77;;
72369;SDS011;60343;-32.030;115.880;2024-03-08T11:25:42;8.80;;;1.08;;
72369;SDS011;60343;-32.030;115.880;2024-03-08T11:28:19;10.30;;;1.00;;
72369;SDS011;60343;-32.030;115.880;2024-03-08T11:34:07;7.43;;;1.08;;
72369;SDS011;60343;-32.030;115.880;2024-03-08T11:36:56;10.35;;;1.10;;
72369;SDS011;60343;-32.030;115.880;2024-03-08T11:39:32;13.95;;;1.55;;
72369;SDS011;60343;-32.030;115.880;2024-03-08T11:42:09;10.20;;;1.10;;
72369;SDS011;60343;-32.030;115.880;2024-03-08T11:44:45;8.55;;;1.67;;
72369;SDS011;60343;-32.030;115.880;2024-03-08T11:47:21;11.27;;;1.15;;
72369;SDS011;60343;-32.030;115.880;2024-03-08T11:49:58;11.68;;;1.45;;
72369;SDS011;60343;-32.030;115.880;2024-03-08T11:52:42;10.70;;;1.38;;
72369;SDS011;60343;-32.030;115.880;2024-03-08T11:55:18;9.60;;;1.27;;
72369;SDS011;60343;-32.030;115.880;2024-03-08T11:57:59;12.80;;;1.30;;
72369;SDS011;60343;-32.030;115.880;2024-03-08T12:00:37;13.50;;;1.40;;
72369;SDS011;60343;-32.030;115.880;2024-03-08T12:03:13;9.63;;;1.30;;
72369;SDS011;60343;-32.030;115.880;2024-03-08T12:05:53;16.08;;;1.67;;
72369;SDS011;60343;-32.030;115.880;2024-03-08T12:08:40;10.85;;;1.30;;
72369;SDS011;60343;-32.030;115.880;2024-03-08T12:11:15;9.88;;;1.30;;
72369;SDS011;60343;-32.030;115.880;2024-03-08T12:13:51;13.95;;;1.63;;
72369;SDS011;60343;-32.030;115.880;2024-03-08T12:16:27;11.38;;;1.63;;
72369;SDS011;60343;-32.030;115.880;2024-03-08T12:19:03;13.70;;;1.60;;
72369;SDS011;60343;-32.030;115.880;2024-03-08T12:21:39;11.35;;;1.63;;
72369;SDS011;60343;-32.030;115.880;2024-03-08T12:24:21;14.07;;;2.38;;
72369;SDS011;60343;-32.030;115.880;2024-03-08T12:26:57;10.82;;;1.35;;
72369;SDS011;60343;-32.030;115.880;2024-03-08T12:29:33;8.20;;;1.38;;
72369;SDS011;60343;-32.030;115.880;2024-03-08T12:32:11;17.75;;;1.48;;
72369;SDS011;60343;-32.030;115.880;2024-03-08T12:34:52;9.10;;;1.33;;
72369;SDS011;60343;-32.030;115.880;2024-03-08T12:37:27;8.25;;;1.10;;
72369;SDS011;60343;-32.030;115.880;2024-03-08T12:40:11;13.93;;;1.40;;
72369;SDS011;60343;-32.030;115.880;2024-03-08T12:42:47;12.38;;;1.73;;
72369;SDS011;60343;-32.030;115.880;2024-03-08T12:45:23;12.68;;;1.73;;
72369;SDS011;60343;-32.030;115.880;2024-03-08T12:47:59;10.85;;;1.52;;
72369;SDS011;60343;-32.030;115.880;2024-03-08T12:50:34;17.25;;;1.70;;
72369;SDS011;60343;-32.030;115.880;2024-03-08T12:53:10;10.55;;;1.23;;
72369;SDS011;60343;-32.030;115.880;2024-03-08T12:55:51;15.63;;;2.20;;
72369;SDS011;60343;-32.030;115.880;2024-03-08T12:58:26;8.90;;;1.60;;
72369;SDS011;60343;-32.030;115.880;2024-03-08T13:01:02;13.02;;;1.73;;
72369;SDS011;60343;-32.030;115.880;2024-03-08T13:03:38;17.98;;;2.35;;
72369;SDS011;60343;-32.030;115.880;2024-03-08T13:09:28;16.05;;;1.77;;
72369;SDS011;60343;-32.030;115.880;2024-03-08T13:12:13;14.93;;;1.80;;
72369;SDS011;60343;-32.030;115.880;2024-03-08T13:14:54;18.13;;;1.98;;
72369;SDS011;60343;-32.030;115.880;2024-03-08T13:17:40;12.00;;;2.10;;
72369;SDS011;60343;-32.030;115.880;2024-03-08T13:20:29;7.43;;;1.48;;
72369;SDS011;60343;-32.030;115.880;2024-03-08T13:23:10;14.93;;;1.67;;
72369;SDS011;60343;-32.030;115.880;2024-03-08T13:25:45;13.23;;;1.27;;
72369;SDS011;60343;-32.030;115.880;2024-03-08T13:28:35;13.68;;;1.80;;
72369;SDS011;60343;-32.030;115.880;2024-03-08T13:31:17;11.73;;;1.55;;
72369;SDS011;60343;-32.030;115.880;2024-03-08T13:34:02;10.68;;;1.10;;
72369;SDS011;60343;-32.030;115.880;2024-03-08T13:36:47;11.35;;;1.20;;
72369;SDS011;60343;-32.030;115.880;2024-03-08T13:39:37;7.05;;;1.10;;
72369;SDS011;60343;-32.030;115.880;2024-03-08T13:42:21;7.88;;;1.75;;
72369;SDS011;60343;-32.030;115.880;2024-03-08T13:45:05;10.77;;;1.98;;
72369;SDS011;60343;-32.030;115.880;2024-03-08T13:47:44;17.60;;;1.70;;
72369;SDS011;60343;-32.030;115.880;2024-03-08T13:54:11;13.60;;;1.50;;
72369;SDS011;60343;-32.030;115.880;2024-03-08T14:00:20;12.20;;;1.50;;
72369;SDS011;60343;-32.030;115.880;2024-03-08T14:03:02;16.88;;;1.73;;
72369;SDS011;60343;-32.030;115.880;2024-03-08T14:05:41;17.42;;;1.77;;
72369;SDS011;60343;-32.030;115.880;2024-03-08T14:08:42;11.63;;;1.60;;
72369;SDS011;60343;-32.030;115.880;2024-03-08T14:11:23;18.73;;;2.00;;
72369;SDS011;60343;-32.030;115.880;2024-03-08T14:14:01;17.75;;;1.65;;
72369;SDS011;60343;-32.030;115.880;2024-03-08T14:16:42;12.45;;;1.80;;
72369;SDS011;60343;-32.030;115.880;2024-03-08T14:19:19;17.88;;;2.47;;
72369;SDS011;60343;-32.030;115.880;2024-03-08T14:21:57;12.82;;;1.27;;
72369;SDS011;60343;-32.030;115.880;2024-03-08T14:24:40;16.48;;;1.92;;
72369;SDS011;60343;-32.030;115.880;2024-03-08T14:27:18;14.35;;;1.65;;
72369;SDS011;60343;-32.030;115.880;2024-03-08T14:29:53;17.80;;;2.00;;
72369;SDS011;60343;-32.030;115.880;2024-03-08T14:32:39;13.55;;;2.17;;
72369;SDS011;60343;-32.030;115.880;2024-03-08T14:35:15;16.08;;;1.88;;
72369;SDS011;60343;-32.030;115.880;2024-03-08T14:37:53;16.02;;;1.58;;
72369;SDS011;60343;-32.030;115.880;2024-03-08T14:40:29;11.10;;;1.55;;
72369;SDS011;60343;-32.030;115.880;2024-03-08T14:43:11;13.43;;;2.05;;
72369;SDS011;60343;-32.030;115.880;2024-03-08T14:45:47;14.50;;;2.00;;
72369;SDS011;60343;-32.030;115.880;2024-03-08T14:48:29;9.02;;;1.38;;
72369;SDS011;60343;-32.030;115.880;2024-03-08T14:51:07;11.35;;;1.40;;
72369;SDS011;60343;-32.030;115.880;2024-03-08T14:53:48;11.43;;;1.90;;
72369;SDS011;60343;-32.030;115.880;2024-03-08T14:56:24;10.85;;;1.45;;
72369;SDS011;60343;-32.030;115.880;2024-03-08T14:59:01;11.75;;;1.92;;
72369;SDS011;60343;-32.030;115.880;2024-03-08T15:01:37;18.60;;;1.92;;
72369;SDS011;60343;-32.030;115.880;2024-03-08T15:04:23;13.77;;;1.63;;
72369;SDS011;60343;-32.030;115.880;2024-03-08T15:07:02;13.00;;;1.63;;
72369;SDS011;60343;-32.030;115.880;2024-03-08T15:09:38;10.57;;;1.50;;
72369;SDS011;60343;-32.030;115.880;2024-03-08T15:12:13;10.23;;;1.48;;
72369;SDS011;60343;-32.030;115.880;2024-03-08T15:14:49;20.05;;;2.63;;
72369;SDS011;60343;-32.030;115.880;2024-03-08T15:17:25;10.15;;;1.20;;
72369;SDS011;60343;-32.030;115.880;2024-03-08T15:20:08;12.30;;;1.38;;
72369;SDS011;60343;-32.030;115.880;2024-03-08T15:22:51;11.35;;;1.67;;
72369;SDS011;60343;-32.030;115.880;2024-03-08T15:25:26;9.90;;;1.80;;
72369;SDS011;60343;-32.030;115.880;2024-03-08T15:28:03;14.30;;;1.38;;